Time;durP1;ratioP1;P1;durP2;ratioP2;P2;SDS_P1;SDS_P2;PMS_P1;PMS_P2;Temp;Humidity;BMP_temperature;BMP_pressure;BME280_temperature;BME280_humidity;BME280_pressure;Samples;Min_cycle;Max_cycle;Signal;HPM_P1;HPM_P2
2021/12/21 00:07:41;;;;;;;0.30;0.30;;;1.70;90.70;0.10;102660.00;;;;31198306;28;20619;-76
2021/12/21 00:37:47;;;;;;;0.30;0.30;;;1.50;90.90;-0.10;102635.00;;;;31213026;28;20049;-75
2021/12/21 00:52:52;;;;;;;0.40;0.40;;;1.50;90.70;-0.20;102624.00;;;;31197011;28;20057;-75
2021/12/21 01:07:56;;;;;;;0.30;0.30;;;1.30;90.90;-0.50;102613.00;;;;31168804;28;20135;-75
2021/12/21 01:38:44;;;;;;;0.30;0.30;;;0.80;91.50;-0.90;102601.00;;;;31208098;28;20048;-74
2021/12/21 01:53:31;;;;;;;;;;;0.80;91.80;-1.00;102603.00;;;;31168504;28;20045;-74
2021/12/21 02:16:11;;;;;;;0.40;0.40;;;0.50;91.90;-1.20;102586.00;;;;31399943;27;20441;-73
2021/12/21 02:31:16;;;;;;;0.30;0.30;;;0.50;91.90;-1.30;102574.00;;;;31208296;28;20039;-72
2021/12/21 02:46:18;;;;;;;0.40;0.40;;;0.40;92.20;-1.30;102578.00;;;;31196772;28;20123;-72
2021/12/21 03:01:19;;;;;;;0.47;0.47;;;0.30;92.40;-1.40;102564.00;;;;31265497;28;20136;-72
2021/12/21 03:16:21;;;;;;;0.35;0.35;;;0.30;92.80;-1.50;102556.00;;;;31234637;28;20072;-72
2021/12/21 03:31:24;;;;;;;0.32;0.32;;;0.30;92.90;-1.50;102556.00;;;;31144339;28;20041;-72
2021/12/21 03:46:25;;;;;;;0.30;0.30;;;0.10;92.20;-1.60;102563.00;;;;31066902;28;20173;-71
2021/12/21 04:01:26;;;;;;;0.50;0.50;;;0.10;92.50;-1.70;102549.00;;;;31066496;28;20072;-71
2021/12/21 04:16:29;;;;;;;0.40;0.40;;;0.00;92.80;-1.80;102548.00;;;;31059735;28;20517;-70
2021/12/21 04:31:30;;;;;;;0.40;0.40;;;-0.10;92.60;-1.90;102537.00;;;;31067509;28;20517;-71
2021/12/21 04:46:34;;;;;;;0.30;0.30;;;-0.20;92.80;-1.90;102541.00;;;;31058595;28;20041;-71
2021/12/21 05:01:35;;;;;;;0.40;0.40;;;-0.30;92.70;-2.00;102542.00;;;;31072274;28;20096;-70
2021/12/21 05:16:37;;;;;;;0.30;0.30;;;0.60;93.50;-2.10;102521.00;;;;31053928;28;20129;-70
2021/12/21 05:31:40;;;;;;;0.30;0.30;;;-0.40;92.70;-2.20;102542.00;;;;31067236;28;20034;-70
2021/12/21 05:46:42;;;;;;;0.43;0.43;;;-0.40;92.80;-2.20;102540.00;;;;31056193;28;20049;-71
2021/12/21 06:01:43;;;;;;;0.40;0.40;;;-0.50;92.80;-2.20;102533.00;;;;31048206;28;20465;-70
2021/12/21 06:32:08;;;;;;;0.30;0.30;;;0.50;93.30;-1.80;102532.00;;;;31159602;28;20049;-71
2021/12/21 07:03:26;;;;;;;0.20;0.20;;;0.20;93.80;-1.30;102533.00;;;;31060797;28;20062;-71
2021/12/21 07:18:29;;;;;;;0.30;0.30;;;0.30;94.20;-1.40;102543.00;;;;31072145;28;20132;-71
2021/12/21 07:33:35;;;;;;;0.50;0.50;;;;;-1.30;102539.00;;;;31069546;28;20049;-71
2021/12/21 07:56:13;;;;;;;0.47;0.47;;;0.40;93.20;-1.40;102557.00;;;;31300462;27;20418;-72
2021/12/21 08:12:10;;;;;;;0.45;0.45;;;0.30;93.00;-1.50;102563.00;;;;31066244;28;20480;-72
2021/12/21 08:26:48;;;;;;;0.32;0.32;;;0.20;92.90;-1.40;102555.00;;;;31111281;28;20046;-71
2021/12/21 08:41:56;;;;;;;0.50;0.50;;;0.30;93.00;-1.30;102569.00;;;;31098507;28;20049;-71
2021/12/21 08:56:59;;;;;;;0.30;0.30;;;0.40;93.20;-1.20;102589.00;;;;31052061;28;20096;-71
2021/12/21 09:12:00;;;;;;;0.40;0.40;;;0.60;93.50;-0.90;102592.00;;;;31012933;28;20042;-72
2021/12/21 09:27:01;;;;;;;0.32;0.32;;;0.60;94.00;-0.60;102597.00;;;;31001110;28;20122;-72
2021/12/21 09:42:02;;;;;;;0.50;0.50;;;1.10;92.90;-0.30;102591.00;;;;30999037;28;20045;-72
2021/12/21 09:57:07;;;;;;;0.40;0.40;;;1.50;92.60;0.10;102590.00;;;;30997525;28;20047;-72
2021/12/21 10:12:28;;;;;;;0.40;0.40;;;1.80;91.80;0.50;102583.00;;;;30984925;28;20085;-72
2021/12/21 10:27:55;;;;;;;0.30;0.30;;;2.20;91.10;0.80;102564.00;;;;30989569;28;20780;-72
2021/12/21 10:43:03;;;;;;;0.40;0.40;;;2.30;90.80;1.10;102542.00;;;;30993389;28;20127;-72
2021/12/21 10:58:16;;;;;;;1.13;0.70;;;2.80;90.70;1.60;102574.00;;;;30986542;28;20410;-73
2021/12/21 11:13:18;;;;;;;0.30;0.30;;;2.90;90.70;2.10;102547.00;;;;30986229;28;20050;-73
2021/12/21 11:28:27;;;;;;;0.30;0.30;;;3.50;88.50;2.50;102518.00;;;;30999129;28;20050;-73
2021/12/21 11:43:37;;;;;;;0.20;0.20;;;3.80;86.30;2.80;102496.00;;;;30983207;28;20059;-74
2021/12/21 11:58:41;;;;;;;0.30;0.30;;;5.00;86.40;3.20;102508.00;;;;30991044;28;20056;-74
2021/12/21 12:13:48;;;;;;;0.30;0.30;;;4.70;84.50;3.40;102505.00;;;;30995936;28;20512;-75
2021/12/21 12:28:50;;;;;;;0.30;0.30;;;4.70;84.60;3.60;102499.00;;;;30990617;28;20053;-76
2021/12/21 12:43:51;;;;;;;0.20;0.20;;;4.90;83.90;3.90;102490.00;;;;31042490;28;20089;-76
2021/12/21 12:59:00;;;;;;;0.30;0.30;;;5.20;85.00;3.90;102470.00;;;;31015985;28;20104;-75
2021/12/21 13:14:04;;;;;;;0.30;0.30;;;5.30;82.70;4.00;102464.00;;;;31050448;28;20526;-75
2021/12/21 13:29:10;;;;;;;0.20;0.20;;;5.30;85.00;4.00;102458.00;;;;31028355;28;20561;-75
2021/12/21 13:44:11;;;;;;;0.68;0.68;;;5.30;83.90;3.90;102455.00;;;;30999857;28;20414;-75
2021/12/21 13:59:15;;;;;;;0.30;0.30;;;5.20;84.00;3.80;102462.00;;;;30995323;28;20041;-76
2021/12/21 14:14:18;;;;;;;0.50;0.50;;;5.00;84.50;3.70;102473.00;;;;30986869;28;20074;-76
2021/12/21 14:29:28;;;;;;;0.30;0.30;;;5.00;85.40;3.30;102466.00;;;;30989629;28;20042;-76
2021/12/21 14:44:35;;;;;;;0.20;0.20;;;4.50;86.30;2.80;102465.00;;;;30999523;28;20050;-76
2021/12/21 14:59:38;;;;;;;0.30;0.30;;;4.10;86.80;2.60;102468.00;;;;31002607;28;20042;-76
2021/12/21 15:14:40;;;;;;;0.30;0.30;;;3.50;87.60;2.40;102476.00;;;;30993247;28;20049;-76
2021/12/21 15:29:41;;;;;;;0.30;0.30;;;3.40;89.40;1.90;102498.00;;;;31007307;28;20662;-76
2021/12/21 15:44:46;;;;;;;0.20;0.20;;;3.30;88.20;1.30;102495.00;;;;30985096;28;20061;-76
2021/12/21 15:59:50;;;;;;;0.28;0.28;;;2.50;89.50;0.80;102483.00;;;;30987882;28;20069;-75
2021/12/21 16:14:52;;;;;;;0.40;0.40;;;2.20;90.00;0.40;102479.00;;;;31010282;28;20046;-75
2021/12/21 16:29:53;;;;;;;0.40;0.40;;;2.00;90.60;0.40;102477.00;;;;31017875;28;20580;-75
2021/12/21 16:44:54;;;;;;;0.30;0.30;;;2.00;90.70;0.50;102466.00;;;;31027466;28;20050;-75
2021/12/21 16:59:58;;;;;;;0.50;0.50;;;1.90;90.90;0.40;102493.00;;;;31042904;28;20049;-75
2021/12/21 17:15:01;;;;;;;0.47;0.47;;;1.90;90.60;0.30;102486.00;;;;31013146;28;20042;-75
2021/12/21 17:30:06;;;;;;;0.40;0.40;;;1.80;90.80;0.20;102494.00;;;;31022430;28;20057;-75
2021/12/21 17:45:09;;;;;;;0.30;0.30;;;1.70;90.90;0.10;102499.00;;;;31016938;28;20112;-75
2021/12/21 18:00:12;;;;;;;0.40;0.40;;;1.60;90.80;-0.10;102496.00;;;;31023696;28;20133;-74
2021/12/21 18:15:14;;;;;;;0.40;0.40;;;1.50;90.80;-0.10;102504.00;;;;31007703;28;20085;-74
2021/12/21 18:30:16;;;;;;;0.30;0.30;;;1.50;90.90;-0.20;102507.00;;;;31005973;28;20461;-73
2021/12/21 18:45:17;;;;;;;0.28;0.28;;;1.40;91.40;-0.30;102498.00;;;;31007362;28;20061;-73
2021/12/21 19:00:22;;;;;;;0.30;0.30;;;1.30;91.10;-0.40;102496.00;;;;31001171;28;20085;-72
2021/12/21 19:15:25;;;;;;;0.30;0.30;;;1.20;91.50;-0.50;102501.00;;;;30996443;28;20042;-73
2021/12/21 19:30:27;;;;;;;0.35;0.35;;;1.20;91.60;-0.60;102496.00;;;;30998834;28;20050;-72
2021/12/21 19:45:29;;;;;;;0.40;0.40;;;1.00;91.20;-0.70;102497.00;;;;30994753;28;20061;-72
2021/12/21 20:00:32;;;;;;;0.32;0.32;;;0.90;91.30;-0.80;102497.00;;;;30980665;28;20746;-72
2021/12/21 20:15:39;;;;;;;0.30;0.30;;;0.80;91.30;-0.90;102490.00;;;;30987384;28;20050;-72
2021/12/21 20:30:44;;;;;;;0.40;0.40;;;0.60;91.60;-1.10;102503.00;;;;31010499;28;20100;-72
2021/12/21 20:45:50;;;;;;;0.40;0.40;;;0.50;91.60;-1.20;102507.00;;;;30980385;28;20104;-72
2021/12/21 21:00:54;;;;;;;0.40;0.40;;;0.40;91.70;-1.40;102498.00;;;;30995122;28;20383;-71
2021/12/21 21:15:57;;;;;;;0.30;0.30;;;0.30;92.20;-1.50;102498.00;;;;31034037;28;20443;-71
2021/12/21 21:31:01;;;;;;;0.30;0.30;;;0.20;92.70;-1.60;102492.00;;;;31032654;28;20081;-71
2021/12/21 21:46:02;;;;;;;0.50;0.50;;;0.10;91.70;-1.70;102495.00;;;;30946712;28;20694;-70
2021/12/21 22:01:03;;;;;;;0.35;0.35;;;0.00;91.80;-1.80;102486.00;;;;30989694;28;20517;-70
2021/12/21 22:16:06;;;;;;;0.30;0.30;;;-0.10;91.80;-1.90;102501.00;;;;31016972;28;20053;-70
2021/12/21 22:31:12;;;;;;;0.38;0.38;;;-0.30;92.60;-2.00;102485.00;;;;30997451;28;20214;-69
2021/12/21 22:46:14;;;;;;;0.43;0.43;;;-0.30;91.70;-2.10;102468.00;;;;31004429;28;20053;-69
2021/12/21 23:01:16;;;;;;;0.30;0.30;;;-0.40;92.00;-2.10;102485.00;;;;31024790;28;20387;-69
2021/12/21 23:16:19;;;;;;;0.30;0.30;;;-0.40;92.40;-2.30;102472.00;;;;31037039;28;20743;-69
2021/12/21 23:31:21;;;;;;;0.35;0.35;;;-0.50;92.10;-2.40;102473.00;;;;31014159;28;20632;-69
2021/12/21 23:46:22;;;;;;;0.40;0.40;;;-0.60;92.40;-2.40;102473.00;;;;30995458;28;20077;-69
